createdAt,value
2022-11-19T00:01:03.071Z,6.93
2022-11-19T00:03:31.693Z,7.30
2022-11-19T00:06:02.942Z,7.30
2022-11-19T00:08:30.089Z,7.17
2022-11-19T00:11:08.161Z,7.00
2022-11-19T00:13:36.860Z,6.87
2022-11-19T00:16:05.336Z,7.30
2022-11-19T00:18:32.698Z,7.13
2022-11-19T00:21:10.203Z,7.77
2022-11-19T00:23:37.436Z,8.37
2022-11-19T00:26:08.373Z,7.50
2022-11-19T00:28:35.570Z,7.40
2022-11-19T00:31:07.493Z,7.30
2022-11-19T00:33:34.866Z,7.60
2022-11-19T00:36:02.453Z,8.17
2022-11-19T00:38:30.272Z,8.53
2022-11-19T00:40:57.720Z,9.60
2022-11-19T00:43:43.519Z,8.20
2022-11-19T00:46:11.255Z,9.50
2022-11-19T00:48:39.263Z,9.00
2022-11-19T00:51:07.237Z,9.10
2022-11-19T00:53:34.495Z,10.13
2022-11-19T00:56:02.109Z,9.93
2022-11-19T00:58:29.637Z,9.90
2022-11-19T01:00:57.095Z,9.97
2022-11-19T01:03:24.631Z,9.07
2022-11-19T01:05:51.778Z,10.33
2022-11-19T01:08:18.928Z,11.00
2022-11-19T01:10:46.144Z,10.23
2022-11-19T01:13:32.023Z,11.37
2022-11-19T01:15:59.419Z,12.03
2022-11-19T01:18:26.833Z,13.50
2022-11-19T01:20:54.269Z,13.53
2022-11-19T01:23:21.459Z,13.53
2022-11-19T01:25:48.725Z,13.80
2022-11-19T01:28:15.854Z,14.57
2022-11-19T01:30:43.877Z,14.07
2022-11-19T01:33:11.194Z,14.80
2022-11-19T01:35:38.355Z,15.47
2022-11-19T01:38:05.937Z,15.13
2022-11-19T01:40:33.269Z,16.93
2022-11-19T01:43:00.388Z,17.23
2022-11-19T01:45:30.189Z,18.80
2022-11-19T01:48:17.537Z,18.50
2022-11-19T01:50:52.961Z,19.37
2022-11-19T01:53:20.708Z,20.57
2022-11-19T01:55:48.055Z,22.07
2022-11-19T01:58:17.717Z,19.97
2022-11-19T02:00:44.829Z,21.93
2022-11-19T02:03:12.919Z,23.07
2022-11-19T02:05:41.096Z,22.47
2022-11-19T02:08:08.944Z,22.70
2022-11-19T02:10:58.255Z,24.10
2022-11-19T02:13:37.653Z,23.40
2022-11-19T02:16:19.623Z,24.00
2022-11-19T02:19:02.065Z,24.77
2022-11-19T02:21:35.570Z,20.37
2022-11-19T02:24:22.930Z,24.57
2022-11-19T02:27:16.060Z,23.63
2022-11-19T02:30:01.889Z,24.37
2022-11-19T02:32:34.866Z,25.93
2022-11-19T02:35:07.837Z,23.83
2022-11-19T02:37:55.167Z,25.70
2022-11-19T02:40:35.035Z,28.13
2022-11-19T02:43:08.651Z,25.60
2022-11-19T02:45:38.470Z,23.93
2022-11-19T02:48:25.819Z,26.37
2022-11-19T02:50:54.372Z,25.00
2022-11-19T02:53:22.382Z,25.67
2022-11-19T02:56:07.977Z,26.23
2022-11-19T02:58:55.255Z,26.33
2022-11-19T03:01:41.905Z,25.40
2022-11-19T03:04:28.746Z,25.10
2022-11-19T03:06:57.225Z,23.47
2022-11-19T03:09:24.591Z,26.07
2022-11-19T03:11:57.756Z,25.83
2022-11-19T03:14:45.203Z,26.70
2022-11-19T03:17:15.139Z,25.73
2022-11-19T03:19:42.227Z,24.37
2022-11-19T03:22:30.426Z,23.70
2022-11-19T03:25:01.149Z,25.83
2022-11-19T03:27:38.142Z,27.20
2022-11-19T03:30:06.303Z,25.37
2022-11-19T03:32:36.189Z,25.97
2022-11-19T03:35:06.741Z,25.47
2022-11-19T03:37:38.633Z,25.10
2022-11-19T03:40:06.807Z,25.53
2022-11-19T03:42:34.906Z,25.23
2022-11-19T03:45:04.461Z,24.37
2022-11-19T03:47:35.417Z,26.07
2022-11-19T03:50:21.306Z,26.10
2022-11-19T03:52:48.434Z,23.73
2022-11-19T03:55:16.388Z,24.17
2022-11-19T03:57:44.133Z,24.70
2022-11-19T04:00:11.722Z,23.37
2022-11-19T04:02:38.873Z,25.47
2022-11-19T04:05:06.165Z,26.17
2022-11-19T04:07:33.255Z,27.63
2022-11-19T04:10:00.394Z,26.87
2022-11-19T04:12:27.596Z,26.67
2022-11-19T04:14:54.707Z,26.93
2022-11-19T04:17:21.831Z,25.87
2022-11-19T04:19:48.981Z,25.63
2022-11-19T04:22:16.106Z,26.67
2022-11-19T04:24:43.266Z,27.87
2022-11-19T04:27:10.404Z,25.03
2022-11-19T04:29:37.573Z,24.17
2022-11-19T04:32:04.763Z,24.90
2022-11-19T04:34:31.958Z,23.73
2022-11-19T04:36:59.070Z,24.80
2022-11-19T04:39:26.800Z,24.67
2022-11-19T04:41:53.933Z,24.83
2022-11-19T04:44:21.021Z,24.47
2022-11-19T04:46:48.094Z,23.93
2022-11-19T04:49:15.218Z,25.17
2022-11-19T04:51:42.306Z,26.03
2022-11-19T04:54:09.458Z,25.53
2022-11-19T04:56:36.958Z,25.73
2022-11-19T04:59:04.296Z,25.90
2022-11-19T05:01:31.755Z,24.20
2022-11-19T05:03:58.978Z,26.83
2022-11-19T05:06:26.084Z,24.80
2022-11-19T05:08:53.181Z,24.87
2022-11-19T05:11:20.319Z,25.83
2022-11-19T05:13:47.463Z,26.03
2022-11-19T05:16:14.573Z,25.40
2022-11-19T05:18:41.675Z,25.97
2022-11-19T05:21:08.814Z,27.07
2022-11-19T05:23:35.913Z,27.73
2022-11-19T05:26:03.017Z,27.40
2022-11-19T05:28:38.973Z,27.30
2022-11-19T05:31:07.039Z,30.03
2022-11-19T05:33:34.749Z,28.60
2022-11-19T05:36:02.071Z,28.67
2022-11-19T05:38:29.179Z,27.47
2022-11-19T05:40:56.285Z,28.10
2022-11-19T05:43:23.396Z,26.97
2022-11-19T05:45:50.502Z,26.67
2022-11-19T05:48:17.569Z,26.93
2022-11-19T05:50:44.670Z,27.03
2022-11-19T05:53:11.861Z,28.20
2022-11-19T05:55:38.990Z,27.10
2022-11-19T05:58:06.123Z,26.67
2022-11-19T06:00:33.251Z,26.90
2022-11-19T06:03:00.491Z,28.70
2022-11-19T06:05:27.679Z,28.10
2022-11-19T06:07:54.825Z,26.97
2022-11-19T06:10:21.906Z,27.17
2022-11-19T06:12:49.098Z,28.07
2022-11-19T06:15:16.222Z,26.30
2022-11-19T06:17:43.417Z,28.17
2022-11-19T06:20:11.287Z,28.93
2022-11-19T06:22:38.619Z,28.40
2022-11-19T06:25:05.929Z,27.00
2022-11-19T06:27:33.020Z,24.80
2022-11-19T06:30:00.097Z,25.37
2022-11-19T06:32:27.555Z,25.77
2022-11-19T06:34:54.638Z,25.87
2022-11-19T06:37:21.736Z,25.10
2022-11-19T06:39:48.815Z,23.93
2022-11-19T06:42:34.704Z,25.53
2022-11-19T06:45:01.817Z,26.47
2022-11-19T06:47:31.064Z,26.13
2022-11-19T06:49:58.301Z,25.93
2022-11-19T06:52:25.861Z,24.27
2022-11-19T06:54:53.099Z,24.60
2022-11-19T06:57:20.266Z,23.67
2022-11-19T06:59:47.416Z,24.10
2022-11-19T07:02:17.849Z,24.77
2022-11-19T07:04:47.498Z,26.37
2022-11-19T07:07:14.667Z,25.63
2022-11-19T07:09:41.873Z,25.63
2022-11-19T07:12:09.251Z,24.53
2022-11-19T07:14:36.319Z,25.33
2022-11-19T07:17:03.669Z,25.20
2022-11-19T07:19:30.989Z,22.93
2022-11-19T07:21:58.417Z,22.70
2022-11-19T07:24:25.527Z,25.50
2022-11-19T07:26:52.618Z,24.97
2022-11-19T07:29:20.102Z,24.37
2022-11-19T07:31:50.428Z,24.17
2022-11-19T07:34:18.059Z,23.77
2022-11-19T07:36:45.509Z,24.27
2022-11-19T07:39:12.747Z,24.57
2022-11-19T07:41:58.813Z,24.83
2022-11-19T07:44:25.929Z,23.73
2022-11-19T07:46:53.324Z,27.00
2022-11-19T07:49:21.204Z,27.50
2022-11-19T07:51:48.671Z,27.83
2022-11-19T07:54:15.840Z,29.00
2022-11-19T07:56:43.127Z,26.73
2022-11-19T07:59:10.557Z,28.77
2022-11-19T08:01:38.150Z,27.57
2022-11-19T08:04:05.599Z,28.57
2022-11-19T08:06:34.554Z,27.60
2022-11-19T08:09:02.364Z,21.80
2022-11-19T08:11:29.484Z,24.63
2022-11-19T08:13:56.630Z,25.00
2022-11-19T08:16:42.321Z,24.87
2022-11-19T08:19:11.474Z,24.33
2022-11-19T08:21:41.252Z,25.47
2022-11-19T08:24:09.011Z,25.77
2022-11-19T08:26:36.240Z,26.23
2022-11-19T08:29:03.426Z,27.27
2022-11-19T08:31:30.589Z,27.90
2022-11-19T08:33:57.707Z,28.30
2022-11-19T08:36:24.861Z,26.77
2022-11-19T08:38:52.095Z,26.93
2022-11-19T08:41:37.688Z,27.10
2022-11-19T08:44:04.784Z,23.97
2022-11-19T08:46:31.871Z,26.13
2022-11-19T08:48:59.052Z,25.67
2022-11-19T08:51:26.214Z,25.97
2022-11-19T08:53:53.573Z,26.53
2022-11-19T08:56:20.959Z,26.27
2022-11-19T08:58:48.400Z,24.57
2022-11-19T09:01:16.562Z,27.50
2022-11-19T09:03:44.186Z,26.97
2022-11-19T09:06:11.702Z,24.73
2022-11-19T09:08:39.045Z,26.70
2022-11-19T09:11:09.267Z,25.50
2022-11-19T09:13:37.106Z,24.97
2022-11-19T09:16:04.696Z,25.50
2022-11-19T09:18:32.506Z,27.60
2022-11-19T09:20:59.964Z,27.57
2022-11-19T09:23:27.949Z,27.23
2022-11-19T09:26:02.545Z,28.40
2022-11-19T09:28:30.132Z,27.73
2022-11-19T09:30:57.249Z,27.67
2022-11-19T09:33:24.519Z,28.83
2022-11-19T09:35:51.657Z,29.20
2022-11-19T09:38:18.792Z,25.27
2022-11-19T09:40:51.806Z,26.07
2022-11-19T09:43:22.010Z,26.73
2022-11-19T09:46:03.377Z,28.17
2022-11-19T09:48:37.527Z,25.73
2022-11-19T09:51:15.988Z,24.50
2022-11-19T09:53:46.073Z,26.30
2022-11-19T09:56:16.517Z,24.60
2022-11-19T09:58:45.250Z,26.10
2022-11-19T10:01:17.341Z,26.87
2022-11-19T10:03:51.438Z,26.50
2022-11-19T10:06:35.705Z,27.50
2022-11-19T10:09:19.223Z,25.37
2022-11-19T10:11:58.555Z,25.43
2022-11-19T10:14:25.674Z,27.17
2022-11-19T10:17:08.087Z,25.70
2022-11-19T10:19:54.230Z,25.60
2022-11-19T10:22:23.631Z,26.37
2022-11-19T10:25:00.291Z,28.67
2022-11-19T10:27:33.106Z,28.23
2022-11-19T10:30:02.958Z,28.13
2022-11-19T10:32:30.315Z,28.57
2022-11-19T10:34:59.922Z,28.00
2022-11-19T10:37:30.709Z,29.17
2022-11-19T10:40:17.762Z,28.50
2022-11-19T10:43:08.167Z,26.70
2022-11-19T10:45:35.466Z,28.50
2022-11-19T10:48:08.908Z,28.30
2022-11-19T10:50:36.606Z,28.27
2022-11-19T10:53:09.504Z,27.67
2022-11-19T10:55:41.791Z,28.93
2022-11-19T10:58:16.520Z,28.43
2022-11-19T11:00:44.175Z,28.03
2022-11-19T11:03:20.199Z,28.77
2022-11-19T11:05:56.100Z,28.33
2022-11-19T11:08:23.578Z,27.80
2022-11-19T11:10:51.840Z,30.40
2022-11-19T11:13:46.723Z,32.10
2022-11-19T11:16:18.912Z,32.57
2022-11-19T11:18:47.095Z,30.27
2022-11-19T11:21:31.572Z,28.90
2022-11-19T11:23:59.158Z,25.73
2022-11-19T11:26:27.946Z,28.07
2022-11-19T11:29:02.765Z,27.13
2022-11-19T11:31:34.647Z,27.27
2022-11-19T11:34:02.403Z,26.47
2022-11-19T11:36:31.447Z,26.40
2022-11-19T11:39:00.112Z,25.47
2022-11-19T11:44:24.132Z,26.53
2022-11-19T11:46:52.979Z,26.40
2022-11-19T11:49:40.339Z,28.17
2022-11-19T11:52:08.263Z,25.67
2022-11-19T11:54:35.630Z,26.30
2022-11-19T11:57:17.723Z,28.63
2022-11-19T11:59:45.302Z,28.67
2022-11-19T12:02:22.083Z,27.93
2022-11-19T12:04:52.349Z,28.33
2022-11-19T12:07:22.484Z,29.27
2022-11-19T12:10:08.475Z,30.47
2022-11-19T12:12:38.620Z,31.60
2022-11-19T12:15:14.627Z,33.17
2022-11-19T12:17:41.713Z,29.20
2022-11-19T12:20:17.907Z,29.77
2022-11-19T12:23:00.375Z,28.57
2022-11-19T12:25:30.948Z,29.17
2022-11-19T12:28:07.202Z,28.70
2022-11-19T12:30:42.806Z,30.17
2022-11-19T12:33:20.218Z,29.97
2022-11-19T12:36:04.929Z,30.07
2022-11-19T12:38:40.638Z,32.60
2022-11-19T12:41:36.958Z,35.97
2022-11-19T12:44:09.905Z,31.63
2022-11-19T12:46:43.010Z,29.17
2022-11-19T12:49:22.410Z,28.90
2022-11-19T12:52:02.117Z,26.93
2022-11-19T12:54:47.881Z,27.47
2022-11-19T12:57:29.163Z,28.13
2022-11-19T13:00:08.566Z,26.63
2022-11-19T13:02:38.340Z,26.03
2022-11-19T13:05:08.239Z,28.47
2022-11-19T13:07:40.818Z,27.97
2022-11-19T13:10:28.823Z,29.80
2022-11-19T13:12:57.968Z,29.50
2022-11-19T13:15:28.843Z,29.87
2022-11-19T13:17:57.236Z,27.70
2022-11-19T13:20:43.211Z,27.17
2022-11-19T13:23:13.804Z,27.33
2022-11-19T13:25:43.051Z,26.83
2022-11-19T13:28:48.821Z,27.43
2022-11-19T13:31:39.180Z,28.03
2022-11-19T13:34:17.657Z,28.30
2022-11-19T13:36:55.421Z,28.53
2022-11-19T13:39:27.282Z,26.80
2022-11-19T13:42:13.468Z,25.80
2022-11-19T13:44:43.658Z,26.17
2022-11-19T13:47:13.652Z,27.77
2022-11-19T13:49:46.371Z,31.30
2022-11-19T13:52:26.859Z,30.23
2022-11-19T13:54:54.892Z,29.70
2022-11-19T13:57:42.126Z,29.20
2022-11-19T14:00:22.510Z,29.53
2022-11-19T14:03:03.730Z,29.43
2022-11-19T14:05:36.675Z,29.87
2022-11-19T14:08:03.751Z,29.30
2022-11-19T14:10:49.312Z,32.13
2022-11-19T14:13:22.462Z,32.37
2022-11-19T14:16:24.610Z,33.47
2022-11-19T14:19:12.100Z,31.03
2022-11-19T14:21:57.923Z,31.20
2022-11-19T14:24:46.501Z,31.67
2022-11-19T14:27:23.373Z,30.63
2022-11-19T14:29:50.457Z,29.20
2022-11-19T14:32:18.471Z,31.17
2022-11-19T14:34:50.125Z,30.30
2022-11-19T14:37:23.080Z,33.50
2022-11-19T14:40:02.245Z,30.10
2022-11-19T14:42:29.349Z,29.67
2022-11-19T14:45:05.514Z,31.03
2022-11-19T14:47:38.127Z,30.77
2022-11-19T14:50:09.851Z,30.00
2022-11-19T14:52:50.326Z,28.00
2022-11-19T14:55:17.399Z,27.67
2022-11-19T14:57:44.936Z,29.57
2022-11-19T15:00:14.925Z,30.83
2022-11-19T15:02:46.097Z,31.27
2022-11-19T15:05:13.168Z,31.03
2022-11-19T15:07:41.914Z,31.23
2022-11-19T15:10:15.253Z,33.57
2022-11-19T15:12:45.529Z,31.23
2022-11-19T15:15:24.503Z,30.27
2022-11-19T15:17:51.614Z,30.97
2022-11-19T15:20:22.368Z,30.13
2022-11-19T15:23:04.744Z,28.47
2022-11-19T15:25:35.026Z,29.40
2022-11-19T15:28:02.106Z,30.23
2022-11-19T15:30:39.306Z,30.03
2022-11-19T15:33:09.546Z,31.87
2022-11-19T15:35:55.226Z,28.97
2022-11-19T15:38:22.597Z,29.90
2022-11-19T15:40:52.018Z,31.03
2022-11-19T15:43:22.247Z,30.17
2022-11-19T15:46:01.914Z,32.97
2022-11-19T15:48:35.991Z,30.33
2022-11-19T15:51:03.953Z,29.60
2022-11-19T15:53:31.329Z,32.50
2022-11-19T15:55:58.397Z,30.33
2022-11-19T15:58:27.147Z,29.90
2022-11-19T16:00:55.209Z,30.33
2022-11-19T16:03:22.788Z,29.53
2022-11-19T16:06:09.427Z,32.10
2022-11-19T16:08:37.212Z,33.50
2022-11-19T16:11:23.529Z,34.80
2022-11-19T16:14:10.477Z,33.57
2022-11-19T16:16:56.567Z,34.07
2022-11-19T16:19:23.835Z,33.33
2022-11-19T16:22:00.649Z,33.50
2022-11-19T16:24:57.470Z,34.23
2022-11-19T16:27:25.516Z,34.80
2022-11-19T16:29:52.731Z,35.07
2022-11-19T16:32:21.046Z,36.13
2022-11-19T16:34:48.418Z,35.27
2022-11-19T16:37:16.294Z,35.37
2022-11-19T16:39:44.567Z,35.97
2022-11-19T16:42:16.879Z,33.47
2022-11-19T16:44:46.038Z,33.53
2022-11-19T16:47:20.907Z,34.13
2022-11-19T16:49:50.794Z,34.80
2022-11-19T16:52:36.624Z,34.90
2022-11-19T16:55:05.057Z,37.63
2022-11-19T16:57:32.788Z,39.27
2022-11-19T17:00:01.957Z,40.07
2022-11-19T17:02:36.606Z,36.13
2022-11-19T17:05:08.763Z,34.57
2022-11-19T17:07:36.444Z,34.97
2022-11-19T17:10:09.310Z,33.97
2022-11-19T17:12:37.446Z,33.70
2022-11-19T17:15:24.077Z,33.03
2022-11-19T17:17:51.875Z,34.83
2022-11-19T17:20:29.270Z,33.77
2022-11-19T17:22:56.882Z,35.13
2022-11-19T17:25:24.082Z,35.50
2022-11-19T17:27:53.884Z,46.33
2022-11-19T17:30:22.148Z,43.67
2022-11-19T17:32:54.074Z,43.90
2022-11-19T17:35:40.397Z,39.17
2022-11-19T17:38:14.153Z,41.90
2022-11-19T17:40:45.098Z,42.00
2022-11-19T17:43:31.378Z,38.67
2022-11-19T17:45:58.503Z,33.13
2022-11-19T17:48:26.879Z,34.67
2022-11-19T17:50:54.587Z,33.13
2022-11-19T17:53:22.162Z,35.53
2022-11-19T17:55:50.258Z,35.40
2022-11-19T17:58:17.351Z,34.17
2022-11-19T18:00:44.620Z,33.20
2022-11-19T18:03:15.071Z,33.77
2022-11-19T18:05:44.898Z,33.67
2022-11-19T18:08:12.001Z,31.83
2022-11-19T18:10:39.137Z,32.67
2022-11-19T18:13:06.573Z,34.70
2022-11-19T18:15:33.668Z,32.33
2022-11-19T18:18:00.790Z,35.00
2022-11-19T18:20:27.868Z,33.27
2022-11-19T18:22:54.995Z,33.80
2022-11-19T18:25:22.141Z,31.70
2022-11-19T18:27:49.327Z,32.93
2022-11-19T18:30:16.918Z,33.93
2022-11-19T18:32:44.019Z,32.00
2022-11-19T18:35:18.621Z,32.57
2022-11-19T18:37:46.100Z,33.33
2022-11-19T18:40:13.637Z,32.43
2022-11-19T18:43:00.707Z,34.63
2022-11-19T18:45:27.919Z,33.97
2022-11-19T18:47:55.055Z,34.53
2022-11-19T18:50:26.823Z,36.03
2022-11-19T18:52:56.885Z,35.67
2022-11-19T18:55:24.039Z,35.43
2022-11-19T18:57:51.182Z,35.33
2022-11-19T19:00:18.586Z,35.37
2022-11-19T19:02:45.728Z,36.53
2022-11-19T19:05:12.836Z,37.17
2022-11-19T19:07:39.984Z,35.97
2022-11-19T19:10:07.438Z,33.97
2022-11-19T19:12:34.522Z,37.90
2022-11-19T19:15:01.647Z,37.90
2022-11-19T19:17:28.730Z,36.27
2022-11-19T19:19:55.893Z,36.77
2022-11-19T19:22:23.058Z,38.73
2022-11-19T19:24:53.897Z,46.30
2022-11-19T19:27:24.989Z,36.83
2022-11-19T19:29:52.114Z,38.97
2022-11-19T19:32:19.228Z,34.47
2022-11-19T19:34:46.326Z,32.70
2022-11-19T19:37:13.450Z,33.43
2022-11-19T19:39:40.572Z,33.40
2022-11-19T19:42:07.894Z,34.23
2022-11-19T19:44:35.080Z,34.33
2022-11-19T19:47:02.328Z,34.63
2022-11-19T19:49:29.862Z,35.47
2022-11-19T19:51:58.633Z,33.50
2022-11-19T19:54:26.031Z,31.90
2022-11-19T19:56:53.196Z,32.33
2022-11-19T19:59:20.499Z,33.13
2022-11-19T20:01:47.901Z,34.23
2022-11-19T20:04:15.088Z,34.43
2022-11-19T20:06:44.990Z,34.60
2022-11-19T20:09:12.131Z,34.77
2022-11-19T20:11:39.379Z,38.93
2022-11-19T20:14:06.539Z,36.80
2022-11-19T20:16:34.147Z,35.97
2022-11-19T20:19:01.850Z,36.30
2022-11-19T20:21:34.098Z,36.63
2022-11-19T20:24:02.466Z,36.93
2022-11-19T20:26:31.484Z,32.73
2022-11-19T20:29:00.699Z,35.20
2022-11-19T20:31:30.001Z,36.33
2022-11-19T20:33:58.311Z,35.50
2022-11-19T20:36:26.304Z,34.57
2022-11-19T20:38:53.750Z,32.63
2022-11-19T20:41:40.357Z,35.37
2022-11-19T20:44:20.573Z,34.53
2022-11-19T20:46:51.022Z,32.60
2022-11-19T20:49:19.021Z,33.80
2022-11-19T20:51:46.961Z,32.33
2022-11-19T20:54:14.287Z,33.53
2022-11-19T20:56:41.815Z,33.60
2022-11-19T20:59:09.117Z,33.93
2022-11-19T21:01:36.337Z,38.20
2022-11-19T21:04:03.532Z,34.70
2022-11-19T21:06:30.668Z,34.77
2022-11-19T21:08:57.841Z,34.20
2022-11-19T21:11:25.338Z,34.07
2022-11-19T21:13:52.478Z,34.77
2022-11-19T21:16:23.778Z,35.17
2022-11-19T21:18:51.206Z,36.30
2022-11-19T21:21:19.266Z,35.63
2022-11-19T21:23:46.826Z,35.43
2022-11-19T21:26:18.453Z,37.60
2022-11-19T21:28:49.302Z,33.43
2022-11-19T21:31:17.117Z,32.57
2022-11-19T21:33:44.610Z,32.87
2022-11-19T21:36:12.470Z,31.63
2022-11-19T21:38:39.920Z,31.77
2022-11-19T21:41:07.684Z,32.93
2022-11-19T21:43:35.309Z,32.27
2022-11-19T21:46:02.490Z,32.90
2022-11-19T21:48:30.831Z,33.53
2022-11-19T21:50:58.445Z,31.27
2022-11-19T21:53:25.550Z,33.10
2022-11-19T21:55:52.638Z,32.67
2022-11-19T21:58:19.740Z,33.17
2022-11-19T22:00:47.101Z,32.20
2022-11-19T22:03:14.526Z,33.67
2022-11-19T22:05:42.274Z,34.13
2022-11-19T22:08:09.419Z,34.53
2022-11-19T22:10:40.192Z,35.20
2022-11-19T22:13:10.510Z,34.93
2022-11-19T22:15:37.662Z,33.87
2022-11-19T22:18:04.870Z,34.47
2022-11-19T22:20:31.966Z,31.73
2022-11-19T22:22:59.043Z,32.67
2022-11-19T22:25:26.169Z,31.17
2022-11-19T22:27:53.263Z,31.80
2022-11-19T22:30:20.386Z,33.30
2022-11-19T22:32:47.469Z,33.50
2022-11-19T22:35:14.586Z,33.03
2022-11-19T22:37:41.659Z,32.37
2022-11-19T22:40:09.265Z,32.13
2022-11-19T22:42:36.369Z,31.83
2022-11-19T22:45:03.624Z,33.13
2022-11-19T22:47:30.783Z,32.67
2022-11-19T22:49:57.876Z,33.37
2022-11-19T22:52:24.992Z,33.30
2022-11-19T22:54:52.089Z,31.40
2022-11-19T22:57:19.167Z,32.93
2022-11-19T22:59:46.278Z,33.17
2022-11-19T23:02:13.371Z,32.47
2022-11-19T23:04:40.530Z,32.00
2022-11-19T23:07:08.526Z,32.00
2022-11-19T23:09:35.735Z,32.63
2022-11-19T23:12:21.493Z,32.73
2022-11-19T23:14:48.640Z,32.50
2022-11-19T23:17:15.766Z,31.87
2022-11-19T23:19:42.903Z,33.00
2022-11-19T23:22:10.006Z,32.13
2022-11-19T23:24:37.102Z,32.80
2022-11-19T23:27:04.212Z,30.73
2022-11-19T23:29:31.307Z,31.27
2022-11-19T23:31:58.393Z,32.63
2022-11-19T23:34:25.486Z,34.43
2022-11-19T23:36:53.364Z,32.33
2022-11-19T23:39:20.759Z,32.30
2022-11-19T23:41:48.128Z,32.87
2022-11-19T23:44:15.258Z,34.27
2022-11-19T23:46:42.446Z,33.50
2022-11-19T23:49:11.449Z,33.87
2022-11-19T23:51:38.833Z,34.00
2022-11-19T23:54:06.096Z,35.13
2022-11-19T23:56:34.489Z,34.33
2022-11-19T23:59:02.347Z,35.50
